Time;durP1;ratioP1;P1;durP2;ratioP2;P2;SDS_P1;SDS_P2;PMS_P1;PMS_P2;Temp;Humidity;BMP_temperature;BMP_pressure;BME280_temperature;BME280_humidity;BME280_pressure;Samples;Min_cycle;Max_cycle;Signal;HPM_P1;HPM_P2
2021/04/03 00:01:43;;;;;;;;;;;;;;;26.25;28.46;100285.00;5095551;28;998;-37
2021/04/03 00:04:09;;;;;;;;;;;;;;;26.24;28.23;100283.31;5096178;28;837;-34
2021/04/03 00:06:34;;;;;;;;;;;;;;;26.28;28.37;100284.63;5096131;28;791;-32
2021/04/03 00:08:59;;;;;;;;;;;;;;;26.21;28.58;100272.91;5095955;28;799;-38
2021/04/03 00:11:25;;;;;;;;;;;;;;;26.23;28.36;100267.34;5096063;28;1961;-37
2021/04/03 00:13:50;;;;;;;;;;;;;;;26.19;28.47;100266.91;5076240;28;1198;-41
2021/04/03 00:16:15;;;;;;;;;;;;;;;26.28;28.29;100260.38;5075409;28;807;-36
2021/04/03 00:18:40;;;;;;;;;;;;;;;26.19;28.53;100266.06;5094689;28;1074;-42
2021/04/03 00:21:06;;;;;;;;;;;;;;;26.28;28.64;100271.16;5095804;28;803;-38
2021/04/03 00:23:31;;;;;;;;;;;;;;;26.28;28.59;100281.94;5097980;28;815;-38
2021/04/03 00:25:56;;;;;;;;;;;;;;;26.33;28.81;100286.78;5099693;28;737;-38
2021/04/03 00:28:21;;;;;;;;;;;;;;;26.34;28.65;100277.66;5099605;28;830;-43
2021/04/03 00:30:47;;;;;;;;;;;;;;;26.32;28.74;100278.84;5098964;28;1893;-38
2021/04/03 00:33:12;;;;;;;;;;;;;;;26.38;28.37;100272.72;5084338;28;923;-42
2021/04/03 00:35:38;;;;;;;;;;;;;;;26.39;28.58;100271.72;5079219;28;871;-38
2021/04/03 00:38:04;;;;;;;;;;;;;;;26.37;28.43;100273.75;5078895;28;776;-41
2021/04/03 00:40:35;;;;;;;;;;;;;;;26.36;28.62;100280.19;5079011;28;753;-40
2021/04/03 00:43:04;;;;;;;;;;;;;;;26.31;28.91;100282.59;5078708;28;1300;-41
2021/04/03 00:45:29;;;;;;;;;;;;;;;26.24;28.92;100277.13;5078652;28;784;-37
2021/04/03 00:47:54;;;;;;;;;;;;;;;26.34;28.95;100284.94;5091133;28;986;-39
2021/04/03 00:50:27;;;;;;;;;;;;;;;26.27;28.87;100284.81;5098904;28;1905;-39
2021/04/03 00:52:52;;;;;;;;;;;;;;;26.33;28.95;100285.94;5098955;28;756;-41
2021/04/03 00:55:17;;;;;;;;;;;;;;;26.27;28.85;100285.66;5098995;28;821;-37
2021/04/03 00:57:43;;;;;;;;;;;;;;;26.33;28.71;100281.41;5098612;28;733;-43
2021/04/03 01:00:09;;;;;;;;;;;;;;;26.33;28.75;100278.69;5098424;28;831;-38
2021/04/03 01:02:34;;;;;;;;;;;;;;;26.28;28.74;100290.03;5088675;28;1005;-37
2021/04/03 01:05:00;;;;;;;;;;;;;;;26.27;28.94;100288.38;5078974;28;771;-41
2021/04/03 01:07:25;;;;;;;;;;;;;;;26.24;28.95;100296.81;5078145;28;741;-36
2021/04/03 01:09:50;;;;;;;;;;;;;;;26.33;28.99;100294.03;5078010;28;1957;-41
2021/04/03 01:12:27;;;;;;;;;;;;;;;26.32;28.78;100282.41;5066491;28;1089;-37
2021/04/03 01:14:53;;;;;;;;;;;;;;;26.35;28.80;100270.41;5080283;28;730;-43
2021/04/03 01:17:44;;;;;;;;;;;;;;;26.31;28.79;100280.72;5090914;28;958;-33
2021/04/03 01:20:21;;;;;;;;;;;;;;;26.27;28.88;100279.44;5054140;28;1086;-35
2021/04/03 01:22:53;;;;;;;;;;;;;;;26.27;29.03;100285.66;5059775;28;1000;-34
2021/04/03 01:25:37;;;;;;;;;;;;;;;26.29;29.10;100301.66;5078177;28;807;-36
2021/04/03 01:28:02;;;;;;;;;;;;;;;26.28;29.03;100311.59;5078297;28;787;-41
2021/04/03 01:30:27;;;;;;;;;;;;;;;26.41;28.77;100300.16;5077921;28;1972;-39
2021/04/03 01:32:56;;;;;;;;;;;;;;;26.43;28.54;100299.13;5071850;28;1014;-36
2021/04/03 01:35:39;;;;;;;;;;;;;;;26.39;28.88;100306.78;5079189;28;934;-32
2021/04/03 01:38:06;;;;;;;;;;;;;;;26.35;28.79;100292.00;5097810;28;874;-33
2021/04/03 01:40:31;;;;;;;;;;;;;;;26.34;28.86;100298.41;5080516;28;846;-38
2021/04/03 01:43:04;;;;;;;;;;;;;;;26.34;28.98;100298.41;5087079;28;1041;-43
2021/04/03 01:45:29;;;;;;;;;;;;;;;26.39;28.72;100294.13;5099686;28;871;-37
2021/04/03 01:47:55;;;;;;;;;;;;;;;26.35;28.92;100289.28;5105903;28;1033;-39
2021/04/03 01:50:20;;;;;;;;;;;;;;;26.36;28.86;100301.78;5097868;28;1901;-41
2021/04/03 01:52:45;;;;;;;;;;;;;;;26.37;28.88;100298.88;5079050;28;962;-36
2021/04/03 01:55:11;;;;;;;;;;;;;;;26.27;29.09;100293.75;5097739;28;906;-37
2021/04/03 01:57:37;;;;;;;;;;;;;;;26.33;28.95;100283.25;5079736;28;1175;-42
2021/04/03 02:00:09;;;;;;;;;;;;;;;26.29;28.90;100285.47;5079025;28;816;-37
2021/04/03 02:02:35;;;;;;;;;;;;;;;26.35;28.91;100289.28;5106519;28;959;-39
2021/04/03 02:05:00;;;;;;;;;;;;;;;26.41;28.66;100305.56;5117787;28;849;-38
2021/04/03 02:07:25;;;;;;;;;;;;;;;26.36;28.91;100305.28;5117782;28;756;-38
2021/04/03 02:09:51;;;;;;;;;;;;;;;26.31;28.81;100298.78;5099864;28;1958;-38
2021/04/03 02:12:16;;;;;;;;;;;;;;;26.38;28.97;100295.16;5111028;28;1115;-40
2021/04/03 02:14:42;;;;;;;;;;;;;;;26.37;28.95;100292.66;5097588;28;780;-41
2021/04/03 02:17:07;;;;;;;;;;;;;;;26.34;28.83;100303.81;5085169;28;955;-37
2021/04/03 02:19:33;;;;;;;;;;;;;;;26.28;29.06;100294.56;5099681;28;830;-37
2021/04/03 02:21:58;;;;;;;;;;;;;;;26.25;29.12;100287.72;5099227;28;1294;-32
2021/04/03 02:24:24;;;;;;;;;;;;;;;26.25;29.17;100289.56;5099281;28;880;-35
2021/04/03 02:26:50;;;;;;;;;;;;;;;26.28;29.04;100306.19;5099460;28;827;-37
2021/04/03 02:29:16;;;;;;;;;;;;;;;26.22;29.19;100298.88;5116387;28;918;-41
2021/04/03 02:31:42;;;;;;;;;;;;;;;26.28;28.99;100289.19;5115167;28;1906;-36
2021/04/03 02:34:07;;;;;;;;;;;;;;;26.30;28.91;100287.13;5078512;28;1491;-34
2021/04/03 02:36:45;;;;;;;;;;;;;;;26.34;29.12;100274.16;5096889;28;809;-38
2021/04/03 02:42:43;;;;;;;;;;;;;;;26.27;29.11;100276.72;5064365;28;1362;-40
2021/04/03 02:45:09;;;;;;;;;;;;;;;26.32;28.95;100287.78;5073786;28;1286;-37
2021/04/03 02:47:47;;;;;;;;;;;;;;;26.29;29.10;100299.78;5106424;28;974;-36
2021/04/03 02:50:15;;;;;;;;;;;;;;;26.29;28.93;100291.69;5116900;28;1910;-40
2021/04/03 02:52:40;;;;;;;;;;;;;;;26.30;27.59;100303.31;5116914;28;827;-38
2021/04/03 02:55:07;;;;;;;;;;;;;;;25.94;26.74;100310.31;5099427;28;835;-37
2021/04/03 02:57:32;;;;;;;;;;;;;;;25.64;26.98;100315.69;5098854;28;760;-37
2021/04/03 02:59:58;;;;;;;;;;;;;;;25.65;27.27;100306.56;5099003;28;748;-32
2021/04/03 03:02:25;;;;;;;;;;;;;;;25.42;27.92;100300.19;5108763;28;997;-37
2021/04/03 03:04:50;;;;;;;;;;;;;;;25.47;28.00;100304.19;5078528;28;768;-37
2021/04/03 03:07:16;;;;;;;;;;;;;;;25.38;28.19;100312.34;5078636;28;751;-35
2021/04/03 03:09:42;;;;;;;;;;;;;;;25.37;28.24;100315.22;5078690;28;867;-34
2021/04/03 03:12:08;;;;;;;;;;;;;;;25.47;28.38;100302.34;5101833;28;1970;-35
2021/04/03 03:14:34;;;;;;;;;;;;;;;25.38;28.36;100298.03;5098507;28;812;-37
2021/04/03 03:16:59;;;;;;;;;;;;;;;25.29;28.56;100311.56;5093271;28;1850;-37
2021/04/03 03:19:24;;;;;;;;;;;;;;;25.25;28.41;100312.13;5077811;28;802;-41
2021/04/03 03:21:50;;;;;;;;;;;;;;;25.24;28.30;100302.38;5096342;28;835;-43
2021/04/03 03:24:15;;;;;;;;;;;;;;;25.21;28.23;100294.69;5078717;28;814;-40
2021/04/03 03:26:40;;;;;;;;;;;;;;;25.19;28.13;100292.97;5096519;28;834;-40
2021/04/03 03:29:09;;;;;;;;;;;;;;;25.19;28.12;100300.25;5096093;28;814;-32
2021/04/03 03:31:35;;;;;;;;;;;;;;;25.17;28.38;100303.09;5097418;28;1913;-38
2021/04/03 03:34:00;;;;;;;;;;;;;;;25.23;28.08;100306.91;5098923;28;747;-40
2021/04/03 03:36:25;;;;;;;;;;;;;;;25.20;28.11;100304.59;5116162;28;890;-41
2021/04/03 03:38:51;;;;;;;;;;;;;;;25.20;28.30;100304.59;5097183;28;1275;-37
2021/04/03 03:41:16;;;;;;;;;;;;;;;25.21;28.23;100303.56;5097474;28;875;-37
2021/04/03 03:43:42;;;;;;;;;;;;;;;25.17;28.21;100316.53;5097539;28;810;-38
2021/04/03 03:46:07;;;;;;;;;;;;;;;24.81;27.38;100325.19;5116793;28;1122;-38
2021/04/03 03:48:33;;;;;;;;;;;;;;;24.46;28.43;100323.69;5098291;28;966;-42
2021/04/03 03:50:58;;;;;;;;;;;;;;;21.97;30.77;100319.78;5095872;28;1913;-39
2021/04/03 03:53:23;;;;;;;;;;;;;;;21.20;31.75;100320.38;5096510;28;783;-41
2021/04/03 03:55:49;;;;;;;;;;;;;;;21.96;30.44;100323.47;5095567;28;819;-38
2021/04/03 03:58:14;;;;;;;;;;;;;;;22.96;29.05;100318.50;5097028;28;789;-44
2021/04/03 04:00:39;;;;;;;;;;;;;;;23.63;28.09;100320.38;5099785;28;784;-38
2021/04/03 04:03:04;;;;;;;;;;;;;;;23.87;27.87;100324.03;5113699;28;950;-41
2021/04/03 04:05:30;;;;;;;;;;;;;;;24.12;27.52;100322.13;5119997;28;780;-36
2021/04/03 04:07:55;;;;;;;;;;;;;;;24.13;27.90;100318.41;5120463;28;771;-39
2021/04/03 04:10:21;;;;;;;;;;;;;;;24.33;27.85;100318.88;5120203;28;1905;-38
2021/04/03 04:12:47;;;;;;;;;;;;;;;24.17;27.72;100327.00;5109294;28;1162;-40
2021/04/03 04:15:12;;;;;;;;;;;;;;;24.12;27.85;100330.19;5099454;28;883;-44
2021/04/03 04:17:37;;;;;;;;;;;;;;;24.12;27.80;100335.56;5100721;28;919;-37
2021/04/03 04:20:03;;;;;;;;;;;;;;;24.01;27.75;100347.50;5099144;28;983;-35
2021/04/03 04:22:28;;;;;;;;;;;;;;;23.94;28.13;100341.16;5099764;28;779;-35
2021/04/03 04:24:53;;;;;;;;;;;;;;;24.00;27.88;100343.16;5100097;28;846;-36
2021/04/03 04:27:19;;;;;;;;;;;;;;;23.93;27.88;100334.94;5099336;28;754;-37
2021/04/03 04:29:44;;;;;;;;;;;;;;;23.97;28.04;100336.25;5099399;28;755;-34
2021/04/03 04:32:09;;;;;;;;;;;;;;;24.15;28.54;100337.06;5105489;28;1897;-43
2021/04/03 04:34:35;;;;;;;;;;;;;;;24.17;28.66;100329.69;5101425;28;1256;-37
2021/04/03 04:37:00;;;;;;;;;;;;;;;24.18;28.92;100337.59;5120135;28;858;-43
2021/04/03 04:39:25;;;;;;;;;;;;;;;24.26;28.84;100335.88;5119890;28;883;-41
2021/04/03 04:41:50;;;;;;;;;;;;;;;24.35;28.69;100337.53;5119755;28;759;-39
2021/04/03 04:44:16;;;;;;;;;;;;;;;24.25;28.97;100342.25;5119619;28;855;-44
2021/04/03 04:46:41;;;;;;;;;;;;;;;24.24;29.00;100343.28;5117175;28;1329;-37
2021/04/03 04:49:06;;;;;;;;;;;;;;;24.36;28.81;100349.13;5099158;28;931;-40
2021/04/03 04:51:31;;;;;;;;;;;;;;;24.40;28.81;100343.22;5118081;28;1905;-37
2021/04/03 04:53:57;;;;;;;;;;;;;;;24.47;28.85;100343.38;5119388;28;863;-39
2021/04/03 04:56:22;;;;;;;;;;;;;;;24.19;28.69;100336.56;5118479;28;863;-38
2021/04/03 04:58:47;;;;;;;;;;;;;;;24.31;29.01;100344.25;5119158;28;871;-35
2021/04/03 05:01:13;;;;;;;;;;;;;;;24.58;28.94;100351.03;5119333;28;862;-33
2021/04/03 05:03:38;;;;;;;;;;;;;;;25.51;27.19;100346.72;5099978;28;1077;-40
2021/04/03 05:06:03;;;;;;;;;;;;;;;25.25;27.39;100352.50;5098930;28;814;-37
2021/04/03 05:08:28;;;;;;;;;;;;;;;24.87;28.12;100353.22;5098462;28;850;-33
2021/04/03 05:10:54;;;;;;;;;;;;;;;25.42;27.62;100356.72;5098230;28;1965;-41
2021/04/03 05:13:19;;;;;;;;;;;;;;;26.51;25.82;100355.66;5114314;28;1104;-31
2021/04/03 05:15:44;;;;;;;;;;;;;;;26.94;25.39;100354.94;5119264;28;767;-38
2021/04/03 05:18:10;;;;;;;;;;;;;;;27.25;25.05;100356.50;5104312;28;998;-43
2021/04/03 05:20:35;;;;;;;;;;;;;;;27.42;24.77;100353.53;5098632;28;748;-38
2021/04/03 05:23:00;;;;;;;;;;;;;;;27.59;24.40;100370.25;5098052;28;795;-41
2021/04/03 05:25:25;;;;;;;;;;;;;;;27.75;24.06;100361.09;5097652;28;775;-36
2021/04/03 05:27:51;;;;;;;;;;;;;;;27.84;23.81;100367.16;5098946;28;763;-43
2021/04/03 05:30:16;;;;;;;;;;;;;;;28.08;23.72;100364.19;5097931;28;1901;-35
2021/04/03 05:32:42;;;;;;;;;;;;;;;28.16;23.73;100371.31;5108309;28;1010;-35
2021/04/03 05:35:07;;;;;;;;;;;;;;;28.27;23.51;100367.19;5118593;28;862;-31
2021/04/03 05:37:32;;;;;;;;;;;;;;;28.36;23.79;100372.28;5118487;28;839;-35
2021/04/03 05:39:58;;;;;;;;;;;;;;;28.48;23.26;100383.38;5117640;28;775;-31
2021/04/03 05:42:23;;;;;;;;;;;;;;;27.98;23.75;100378.91;5118838;28;743;-36
2021/04/03 05:44:48;;;;;;;;;;;;;;;27.26;24.74;100377.06;5118737;28;819;-31
2021/04/03 05:47:14;;;;;;;;;;;;;;;27.79;24.40;100383.16;5111079;28;1106;-33
2021/04/03 05:49:42;;;;;;;;;;;;;;;28.18;23.89;100385.47;5112632;28;924;-33
2021/04/03 05:52:07;;;;;;;;;;;;;;;28.39;23.56;100383.75;5117467;28;1970;-45
2021/04/03 05:54:36;;;;;;;;;;;;;;;28.56;23.31;100385.06;5117812;28;870;-33
2021/04/03 05:57:02;;;;;;;;;;;;;;;28.53;23.42;100396.28;5117808;28;831;-29
2021/04/03 05:59:27;;;;;;;;;;;;;;;27.62;24.25;100401.47;5118151;28;868;-44
2021/04/03 06:01:53;;;;;;;;;;;;;;;27.07;25.10;100402.00;5113503;28;981;-31
2021/04/03 06:04:18;;;;;;;;;;;;;;;27.29;25.35;100400.16;5097497;28;795;-31
2021/04/03 06:06:45;;;;;;;;;;;;;;;27.60;24.31;100401.69;5079115;28;781;-33
2021/04/03 06:09:10;;;;;;;;;;;;;;;26.93;25.46;100422.56;5079201;28;843;-33
2021/04/03 06:11:45;;;;;;;;;;;;;;;27.15;25.26;100415.38;5098003;28;1965;-42
2021/04/03 06:14:10;;;;;;;;;;;;;;;27.41;24.94;100418.53;5117661;28;822;-36
2021/04/03 06:22:44;;;;;;;;;;;;;;;27.13;25.01;100418.28;5096847;28;640;-33
2021/04/03 06:25:10;;;;;;;;;;;;;;;26.61;25.85;100422.81;5097049;28;760;-44
2021/04/03 06:27:35;;;;;;;;;;;;;;;27.03;25.48;100425.84;5097001;28;792;-35
2021/04/03 06:30:13;;;;;;;;;;;;;;;27.51;24.51;100425.28;5081795;28;1897;-34
2021/04/03 06:32:38;;;;;;;;;;;;;;;27.69;24.17;100434.00;5106565;28;946;-30
2021/04/03 06:35:04;;;;;;;;;;;;;;;27.79;24.19;100434.50;5115471;28;871;-35
2021/04/03 06:37:33;;;;;;;;;;;;;;;27.46;24.52;100437.72;5115921;28;796;-28
2021/04/03 06:39:59;;;;;;;;;;;;;;;26.94;25.35;100435.91;5116856;28;1155;-34
2021/04/03 06:42:40;;;;;;;;;;;;;;;27.32;24.67;100421.38;5116721;28;855;-40
2021/04/03 06:45:25;;;;;;;;;;;;;;;27.94;23.88;100436.28;5116386;28;1078;-33
2021/04/03 06:47:51;;;;;;;;;;;;;;;27.13;24.94;100447.97;5104321;28;997;-31
2021/04/03 06:50:17;;;;;;;;;;;;;;;26.76;25.54;100437.13;5096748;28;1972;-33
2021/04/03 06:52:42;;;;;;;;;;;;;;;27.51;24.47;100438.78;5096924;28;771;-39
2021/04/03 06:55:11;;;;;;;;;;;;;;;27.90;24.15;100441.22;5096247;28;838;-33
2021/04/03 06:57:37;;;;;;;;;;;;;;;27.89;23.87;100444.97;5096100;28;816;-38
2021/04/03 07:00:03;;;;;;;;;;;;;;;27.84;24.13;100444.72;5096718;28;886;-46
2021/04/03 07:02:28;;;;;;;;;;;;;;;27.84;24.12;100447.44;5105134;28;982;-43
2021/04/03 07:04:54;;;;;;;;;;;;;;;27.85;23.94;100449.94;5098482;28;835;-35
2021/04/03 07:07:19;;;;;;;;;;;;;;;27.14;25.07;100451.50;5116962;28;1038;-38
2021/04/03 07:09:44;;;;;;;;;;;;;;;27.17;25.07;100453.84;5098097;28;1439;-43
2021/04/03 07:12:11;;;;;;;;;;;;;;;27.82;24.43;100460.28;5092508;28;1906;-45
2021/04/03 07:14:37;;;;;;;;;;;;;;;27.59;24.06;100466.72;5078394;28;1391;-38
2021/04/03 07:17:02;;;;;;;;;;;;;;;26.84;25.46;100462.34;5082707;28;963;-31
2021/04/03 07:19:27;;;;;;;;;;;;;;;27.25;24.83;100463.66;5116525;28;851;-42
2021/04/03 07:21:53;;;;;;;;;;;;;;;27.58;24.65;100470.44;5116923;28;755;-32
2021/04/03 07:24:18;;;;;;;;;;;;;;;27.74;24.42;100470.19;5097857;28;799;-36
2021/04/03 07:26:45;;;;;;;;;;;;;;;27.88;24.22;100475.72;5116789;28;780;-34
2021/04/03 07:29:29;;;;;;;;;;;;;;;27.93;23.72;100470.56;5097277;28;781;-45
2021/04/03 07:31:54;;;;;;;;;;;;;;;28.20;23.13;100478.06;5111448;28;1910;-38
2021/04/03 07:34:20;;;;;;;;;;;;;;;27.12;24.81;100483.25;5081771;28;866;-41
2021/04/03 07:36:45;;;;;;;;;;;;;;;26.40;25.79;100486.44;5081945;28;863;-37
2021/04/03 07:39:29;;;;;;;;;;;;;;;27.27;24.83;100485.94;5082039;28;834;-41
2021/04/03 07:41:54;;;;;;;;;;;;;;;27.50;24.27;100491.16;5100457;28;823;-43
2021/04/03 07:44:19;;;;;;;;;;;;;;;27.87;23.95;100495.69;5100323;28;823;-40
2021/04/03 07:46:45;;;;;;;;;;;;;;;27.90;23.54;100489.03;5102244;28;1092;-37
2021/04/03 07:49:11;;;;;;;;;;;;;;;28.09;23.66;100493.78;5121259;28;770;-36
2021/04/03 07:51:39;;;;;;;;;;;;;;;28.15;23.59;100486.75;5119993;28;1960;-37
2021/04/03 07:54:05;;;;;;;;;;;;;;;28.27;23.48;100491.63;5120688;28;819;-39
2021/04/03 07:56:52;;;;;;;;;;;;;;;27.30;24.71;100496.34;5120643;28;795;-33
2021/04/03 07:59:17;;;;;;;;;;;;;;;26.61;25.49;100501.06;5120318;28;768;-31
2021/04/03 08:01:42;;;;;;;;;;;;;;;27.63;24.51;100498.56;5117442;28;954;-32
2021/04/03 08:04:08;;;;;;;;;;;;;;;27.84;23.75;100491.50;5082072;28;1445;-39
2021/04/03 08:06:34;;;;;;;;;;;;;;;27.79;23.72;100482.31;5099883;28;780;-44
2021/04/03 08:09:00;;;;;;;;;;;;;;;27.96;23.68;100486.41;5099632;28;748;-33
2021/04/03 08:11:26;;;;;;;;;;;;;;;28.08;23.64;100480.44;5099812;28;1957;-35
2021/04/03 08:13:52;;;;;;;;;;;;;;;27.33;24.83;100484.31;5119822;28;1140;-35
2021/04/03 08:16:17;;;;;;;;;;;;;;;26.64;25.75;100479.91;5119957;28;748;-38
2021/04/03 08:18:43;;;;;;;;;;;;;;;27.37;24.70;100472.97;5100530;28;1001;-34
2021/04/03 08:21:09;;;;;;;;;;;;;;;27.70;24.42;100479.75;5099752;28;727;-38
2021/04/03 08:23:36;;;;;;;;;;;;;;;27.99;23.96;100482.50;5099103;28;839;-36
2021/04/03 08:26:01;;;;;;;;;;;;;;;28.22;23.79;100473.28;5099623;28;799;-33
2021/04/03 08:28:26;;;;;;;;;;;;;;;28.26;23.50;100476.44;5099977;28;748;-37
2021/04/03 08:30:52;;;;;;;;;;;;;;;28.15;23.74;100480.50;5099229;28;1903;-34
2021/04/03 08:33:18;;;;;;;;;;;;;;;27.05;25.02;100479.63;5114803;28;942;-33
2021/04/03 08:35:44;;;;;;;;;;;;;;;26.97;25.18;100476.00;5119455;28;822;-42
2021/04/03 08:38:09;;;;;;;;;;;;;;;27.80;24.00;100490.22;5119493;28;779;-35
2021/04/03 08:40:35;;;;;;;;;;;;;;;27.56;24.53;100488.72;5107954;28;867;-31
2021/04/03 08:43:00;;;;;;;;;;;;;;;26.66;25.89;100477.03;5097448;28;889;-33
2021/04/03 08:45:25;;;;;;;;;;;;;;;26.76;25.64;100482.16;5097985;28;1234;-32
2021/04/03 08:47:51;;;;;;;;;;;;;;;27.47;24.58;100482.59;5110607;28;1026;-36
2021/04/03 08:50:16;;;;;;;;;;;;;;;27.68;24.17;100473.69;5119497;28;1971;-33
2021/04/03 08:52:41;;;;;;;;;;;;;;;27.87;23.94;100484.88;5101052;28;819;-33
2021/04/03 08:55:07;;;;;;;;;;;;;;;27.98;23.94;100478.94;5119125;28;993;-38
2021/04/03 08:57:32;;;;;;;;;;;;;;;28.10;23.40;100473.00;5118907;28;1511;-37
2021/04/03 08:59:58;;;;;;;;;;;;;;;27.28;24.63;100484.06;5118952;28;826;-35
2021/04/03 09:02:23;;;;;;;;;;;;;;;26.59;25.75;100492.31;5092961;28;958;-36
2021/04/03 09:04:48;;;;;;;;;;;;;;;27.38;24.74;100484.56;5080588;28;812;-36
2021/04/03 09:07:30;;;;;;;;;;;;;;;27.90;24.16;100484.47;5098335;28;871;-36
2021/04/03 09:10:04;;;;;;;;;;;;;;;27.01;25.13;100485.41;5098865;28;874;-40
2021/04/03 09:12:30;;;;;;;;;;;;;;;26.36;26.42;100488.66;5088732;28;1205;-43
2021/04/03 09:14:55;;;;;;;;;;;;;;;26.50;26.18;100486.16;5100316;28;767;-39
2021/04/03 09:17:21;;;;;;;;;;;;;;;27.61;24.62;100481.69;5111032;28;994;-43
2021/04/03 09:19:46;;;;;;;;;;;;;;;27.30;24.96;100484.69;5098583;28;827;-38
2021/04/03 09:22:12;;;;;;;;;;;;;;;26.58;25.92;100475.28;5097847;28;823;-37
2021/04/03 09:24:39;;;;;;;;;;;;;;;26.68;25.60;100476.84;5098316;28;780;-44
2021/04/03 09:27:11;;;;;;;;;;;;;;;27.59;24.48;100483.75;5098724;28;797;-36
2021/04/03 09:29:36;;;;;;;;;;;;;;;27.81;24.17;100489.19;5097900;28;735;-34
2021/04/03 09:32:05;;;;;;;;;;;;;;;27.98;23.98;100480.78;5102929;28;1897;-43
2021/04/03 09:34:31;;;;;;;;;;;;;;;28.07;23.73;100479.63;5118710;28;870;-37
2021/04/03 09:36:56;;;;;;;;;;;;;;;28.16;23.59;100480.31;5118348;28;763;-33
2021/04/03 09:39:22;;;;;;;;;;;;;;;27.43;24.76;100478.59;5118301;28;838;-42
2021/04/03 09:41:48;;;;;;;;;;;;;;;26.90;25.80;100469.69;5118356;28;790;-35
2021/04/03 09:44:13;;;;;;;;;;;;;;;27.75;24.43;100468.34;5117925;28;751;-38
2021/04/03 09:46:38;;;;;;;;;;;;;;;28.13;24.03;100475.28;5116085;28;1037;-41
2021/04/03 09:49:06;;;;;;;;;;;;;;;28.18;24.05;100480.09;5097200;28;858;-33
2021/04/03 09:51:31;;;;;;;;;;;;;;;28.35;23.52;100469.84;5098067;28;1962;-40
2021/04/03 09:53:57;;;;;;;;;;;;;;;28.48;23.20;100469.94;5097571;28;763;-36
2021/04/03 09:56:22;;;;;;;;;;;;;;;28.28;23.43;100466.25;5096948;28;857;-36
2021/04/03 09:58:47;;;;;;;;;;;;;;;27.22;25.21;100475.69;5097515;28;806;-33
2021/04/03 10:01:12;;;;;;;;;;;;;;;27.59;24.81;100470.22;5097487;28;787;-34
2021/04/03 10:03:38;;;;;;;;;;;;;;;28.13;24.09;100471.78;5115479;28;970;-38
2021/04/03 10:06:03;;;;;;;;;;;;;;;28.34;23.59;100469.00;5118041;28;863;-40
2021/04/03 10:08:29;;;;;;;;;;;;;;;28.40;23.74;100474.66;5117935;28;960;-36
2021/04/03 10:10:54;;;;;;;;;;;;;;;28.37;23.86;100475.91;5117467;28;1901;-36
2021/04/03 10:13:19;;;;;;;;;;;;;;;28.50;23.27;100464.34;5102200;28;1103;-37
2021/04/03 10:15:44;;;;;;;;;;;;;;;27.54;24.82;100463.75;5097557;28;767;-32
2021/04/03 10:18:10;;;;;;;;;;;;;;;27.04;25.45;100467.16;5111835;28;959;-42
2021/04/03 10:20:35;;;;;;;;;;;;;;;28.02;24.32;100443.41;5117871;28;818;-34
2021/04/03 10:23:00;;;;;;;;;;;;;;;28.23;23.79;100442.50;5117263;28;767;-37
2021/04/03 10:25:25;;;;;;;;;;;;;;;28.52;23.54;100446.03;5117913;28;759;-36
2021/04/03 10:27:51;;;;;;;;;;;;;;;28.53;23.48;100455.00;5117343;28;875;-34
2021/04/03 10:30:17;;;;;;;;;;;;;;;28.67;23.15;100447.75;5117395;28;1906;-34
2021/04/03 10:32:42;;;;;;;;;;;;;;;27.98;24.00;100451.91;5106213;28;1578;-36
2021/04/03 10:35:08;;;;;;;;;;;;;;;27.47;24.87;100448.31;5096866;28;496;-40
2021/04/03 10:37:33;;;;;;;;;;;;;;;28.03;24.42;100443.19;5097002;28;732;-34
2021/04/03 10:39:58;;;;;;;;;;;;;;;28.28;23.89;100445.44;5096906;28;856;-43
2021/04/03 10:42:24;;;;;;;;;;;;;;;28.51;23.53;100446.25;5096878;28;786;-37
2021/04/03 10:44:49;;;;;;;;;;;;;;;28.57;23.70;100440.03;5096737;28;973;-43
2021/04/03 10:47:14;;;;;;;;;;;;;;;27.08;25.94;100449.56;5103357;28;1071;-38
2021/04/03 10:49:39;;;;;;;;;;;;;;;27.35;25.10;100449.84;5116953;28;771;-40
2021/04/03 10:52:05;;;;;;;;;;;;;;;26.98;25.85;100444.44;5116667;28;1914;-40
2021/04/03 10:54:32;;;;;;;;;;;;;;;26.76;26.13;100441.66;5117309;28;807;-40
2021/04/03 10:56:57;;;;;;;;;;;;;;;26.94;25.96;100433.19;5117049;28;759;-37
2021/04/03 10:59:23;;;;;;;;;;;;;;;27.05;26.11;100431.03;5116600;28;862;-41
2021/04/03 11:01:49;;;;;;;;;;;;;;;27.18;25.56;100433.88;5113195;28;1029;-38
2021/04/03 11:04:14;;;;;;;;;;;;;;;27.35;25.55;100425.53;5096769;28;770;-33
2021/04/03 11:06:39;;;;;;;;;;;;;;;27.50;25.13;100420.06;5095998;28;843;-37
2021/04/03 11:09:05;;;;;;;;;;;;;;;27.37;25.21;100420.78;5096361;28;818;-41
2021/04/03 11:11:30;;;;;;;;;;;;;;;27.24;25.64;100419.63;5096696;28;1909;-42
2021/04/03 11:13:55;;;;;;;;;;;;;;;27.26;25.40;100409.47;5095932;28;880;-39
2021/04/03 11:16:21;;;;;;;;;;;;;;;27.45;25.39;100407.16;5096685;28;473;-35
2021/04/03 11:18:49;;;;;;;;;;;;;;;27.40;25.62;100406.91;5115962;28;946;-35
2021/04/03 11:21:14;;;;;;;;;;;;;;;27.67;24.93;100406.28;5116346;28;798;-36
2021/04/03 11:23:40;;;;;;;;;;;;;;;27.67;25.05;100398.19;5116805;28;845;-35
2021/04/03 11:26:05;;;;;;;;;;;;;;;27.69;24.67;100399.72;5116908;28;888;-36
2021/04/03 11:28:30;;;;;;;;;;;;;;;27.55;25.09;100401.41;5116418;28;785;-35
2021/04/03 11:30:55;;;;;;;;;;;;;;;27.46;25.20;100411.53;5116843;28;1987;-39
2021/04/03 11:33:21;;;;;;;;;;;;;;;27.61;24.99;100410.63;5100220;28;938;-36
2021/04/03 11:35:46;;;;;;;;;;;;;;;27.69;25.17;100399.72;5095898;28;750;-34
2021/04/03 11:38:11;;;;;;;;;;;;;;;27.82;24.82;100393.56;5096815;28;763;-35
2021/04/03 11:40:37;;;;;;;;;;;;;;;28.28;24.40;100390.53;5096292;28;775;-35
2021/04/03 11:43:02;;;;;;;;;;;;;;;28.09;24.24;100374.81;5095689;28;723;-36
2021/04/03 11:45:28;;;;;;;;;;;;;;;27.86;24.83;100381.31;5096002;28;1279;-35
2021/04/03 11:47:53;;;;;;;;;;;;;;;27.75;25.00;100389.97;5108327;28;1014;-42
2021/04/03 11:50:19;;;;;;;;;;;;;;;27.78;25.16;100388.75;5115792;28;1996;-35
2021/04/03 11:52:44;;;;;;;;;;;;;;;27.97;24.91;100381.81;5116395;28;862;-35
2021/04/03 11:55:09;;;;;;;;;;;;;;;28.03;24.82;100367.50;5116213;28;854;-36
2021/04/03 11:57:35;;;;;;;;;;;;;;;28.28;24.30;100364.28;5116040;28;818;-38
2021/04/03 12:00:01;;;;;;;;;;;;;;;27.89;24.76;100361.19;5116525;28;846;-36
2021/04/03 12:02:26;;;;;;;;;;;;;;;28.13;24.86;100359.00;5107940;28;954;-34
2021/04/03 12:04:51;;;;;;;;;;;;;;;27.80;25.34;100352.38;5095715;28;840;-34
2021/04/03 12:07:16;;;;;;;;;;;;;;;27.99;24.81;100350.81;5095132;28;837;-33
2021/04/03 12:09:42;;;;;;;;;;;;;;;28.05;24.93;100345.66;5095805;28;842;-33
2021/04/03 12:12:07;;;;;;;;;;;;;;;28.25;24.41;100345.78;5101139;28;1906;-42
2021/04/03 12:14:33;;;;;;;;;;;;;;;28.05;24.60;100340.25;5115630;28;802;-38
2021/04/03 12:16:58;;;;;;;;;;;;;;;27.91;25.01;100334.75;5111187;28;1009;-41
2021/04/03 12:19:23;;;;;;;;;;;;;;;28.06;24.87;100331.13;5097896;28;815;-35
2021/04/03 12:21:49;;;;;;;;;;;;;;;27.81;25.01;100329.72;5099243;28;883;-40
2021/04/03 12:24:14;;;;;;;;;;;;;;;27.95;24.96;100325.25;5099413;28;767;-38
2021/04/03 12:26:42;;;;;;;;;;;;;;;28.01;24.83;100333.59;5099991;28;787;-37
2021/04/03 12:29:07;;;;;;;;;;;;;;;28.08;24.86;100329.03;5098811;28;874;-34
2021/04/03 12:31:33;;;;;;;;;;;;;;;28.16;24.60;100314.53;5100363;28;1897;-35
2021/04/03 12:33:58;;;;;;;;;;;;;;;28.18;24.60;100307.88;5119870;28;959;-37
2021/04/03 12:36:23;;;;;;;;;;;;;;;28.06;24.81;100313.00;5119471;28;882;-28
2021/04/03 12:38:48;;;;;;;;;;;;;;;27.13;24.14;100307.56;5119238;28;818;-40
2021/04/03 12:41:14;;;;;;;;;;;;;;;26.78;24.57;100307.41;5118592;28;906;-42
2021/04/03 12:43:39;;;;;;;;;;;;;;;26.44;25.24;100306.22;5118671;28;823;-41
2021/04/03 12:46:04;;;;;;;;;;;;;;;26.41;26.20;100307.41;5119325;28;1188;-37
2021/04/03 12:48:30;;;;;;;;;;;;;;;26.60;25.51;100307.84;5102361;28;1017;-36
2021/04/03 12:50:55;;;;;;;;;;;;;;;26.60;25.97;100295.19;5098286;28;1918;-36
2021/04/03 12:53:20;;;;;;;;;;;;;;;27.28;25.43;100297.75;5099238;28;839;-38
2021/04/03 12:55:46;;;;;;;;;;;;;;;27.38;24.76;100290.94;5098771;28;838;-40
2021/04/03 12:58:11;;;;;;;;;;;;;;;26.76;25.53;100294.09;5098386;28;871;-33
2021/04/03 13:00:36;;;;;;;;;;;;;;;26.55;25.80;100299.47;5098920;28;739;-35